createdAt,value
2023-02-17T00:01:33.177Z,70.62
2023-02-17T00:06:37.034Z,71.12
2023-02-17T00:11:40.812Z,70.79
2023-02-17T00:16:46.391Z,70.93
2023-02-17T00:21:52.763Z,70.95
2023-02-17T00:26:56.814Z,70.91
2023-02-17T00:32:01.037Z,70.34
2023-02-17T00:37:05.065Z,71.23
2023-02-17T00:42:09.812Z,70.43
2023-02-17T00:47:13.539Z,70.93
2023-02-17T00:52:17.385Z,70.87
2023-02-17T00:57:21.264Z,70.77
2023-02-17T01:02:25.033Z,70.98
2023-02-17T01:07:30.008Z,70.87
2023-02-17T01:12:33.807Z,71.10
2023-02-17T01:17:37.902Z,71.17
2023-02-17T01:22:42.072Z,71.12
2023-02-17T01:27:47.808Z,71.21
2023-02-17T01:32:51.799Z,71.18
2023-02-17T01:37:55.632Z,71.45
2023-02-17T01:43:00.267Z,71.02
2023-02-17T01:48:10.299Z,71.69
2023-02-17T01:53:18.899Z,70.95
2023-02-17T01:58:25.505Z,71.05
2023-02-17T02:03:33.588Z,71.08
2023-02-17T02:08:52.779Z,71.72
2023-02-17T02:13:59.092Z,70.98
2023-02-17T02:19:24.434Z,71.39
2023-02-17T02:24:46.282Z,71.02
2023-02-17T02:29:52.965Z,70.91
2023-02-17T02:35:38.053Z,70.96
2023-02-17T02:40:49.713Z,71.04
2023-02-17T02:45:53.523Z,70.99
2023-02-17T02:51:03.285Z,71.17
2023-02-17T02:56:14.762Z,71.16
2023-02-17T03:01:34.100Z,71.05
2023-02-17T03:06:47.438Z,71.09
2023-02-17T03:11:53.490Z,71.31
2023-02-17T03:16:57.426Z,70.65
2023-02-17T03:22:27.139Z,70.68
2023-02-17T03:27:31.376Z,71.03
2023-02-17T03:32:35.339Z,70.82
2023-02-17T03:37:39.507Z,71.04
2023-02-17T03:42:43.299Z,70.73
2023-02-17T03:47:47.284Z,70.70
2023-02-17T03:52:51.314Z,70.32
2023-02-17T03:57:55.036Z,70.55
2023-02-17T04:02:58.954Z,70.84
2023-02-17T04:08:02.833Z,70.64
2023-02-17T04:13:07.010Z,70.13
2023-02-17T04:18:11.018Z,70.43
2023-02-17T04:23:15.240Z,70.39
2023-02-17T04:28:19.969Z,70.44
2023-02-17T04:33:23.834Z,70.32
2023-02-17T04:38:29.610Z,70.15
2023-02-17T04:43:34.008Z,70.24
2023-02-17T04:48:37.985Z,70.26
2023-02-17T04:53:41.853Z,70.31
2023-02-17T04:58:45.640Z,70.12
2023-02-17T05:03:49.617Z,69.93
2023-02-17T05:08:54.662Z,70.00
2023-02-17T05:13:58.927Z,70.27
2023-02-17T05:19:03.011Z,70.25
2023-02-17T05:24:07.218Z,70.16
2023-02-17T05:29:11.270Z,69.56
2023-02-17T05:34:15.174Z,69.63
2023-02-17T05:39:19.250Z,69.67
2023-02-17T05:44:23.205Z,69.76
2023-02-17T05:49:27.912Z,69.61
2023-02-17T05:54:31.738Z,69.22
2023-02-17T05:59:35.453Z,69.47
2023-02-17T06:04:39.560Z,69.32
2023-02-17T06:09:43.432Z,69.24
2023-02-17T06:14:47.977Z,69.42
2023-02-17T06:19:52.113Z,69.45
2023-02-17T06:24:55.929Z,68.91
2023-02-17T06:29:59.916Z,68.45
2023-02-17T06:35:03.838Z,68.45
2023-02-17T06:40:09.120Z,68.41
2023-02-17T06:45:12.906Z,68.10
2023-02-17T06:50:16.986Z,67.90
2023-02-17T06:55:21.150Z,67.74
2023-02-17T07:00:25.111Z,67.81
2023-02-17T07:05:29.549Z,67.70
2023-02-17T07:10:34.152Z,67.26
2023-02-17T07:15:38.223Z,67.11
2023-02-17T07:20:42.418Z,66.96
2023-02-17T07:25:46.355Z,66.79
2023-02-17T07:30:50.438Z,66.78
2023-02-17T07:35:54.592Z,66.44
2023-02-17T07:40:58.513Z,66.24
2023-02-17T07:46:02.781Z,66.29
2023-02-17T07:51:12.332Z,66.49
2023-02-17T07:56:17.745Z,66.66
2023-02-17T08:01:25.266Z,66.45
2023-02-17T08:06:29.286Z,66.73
2023-02-17T08:11:51.687Z,66.06
2023-02-17T08:16:55.802Z,66.21
2023-02-17T08:22:00.939Z,65.87
2023-02-17T08:27:04.942Z,65.78
2023-02-17T08:32:10.430Z,65.77
2023-02-17T08:37:14.319Z,65.56
2023-02-17T08:42:18.914Z,65.54
2023-02-17T08:47:22.999Z,64.92
2023-02-17T08:52:26.844Z,65.31
2023-02-17T08:57:32.093Z,65.25
2023-02-17T09:02:36.587Z,64.71
2023-02-17T09:07:41.209Z,64.63
2023-02-17T09:12:45.134Z,65.46
2023-02-17T09:17:49.260Z,64.41
2023-02-17T09:22:53.514Z,64.58
2023-02-17T09:27:59.846Z,64.82
2023-02-17T09:33:06.268Z,64.04
2023-02-17T09:38:11.211Z,64.40
2023-02-17T09:43:27.629Z,64.33
2023-02-17T09:48:35.016Z,64.18
2023-02-17T09:53:50.449Z,64.28
2023-02-17T09:58:56.804Z,64.29
2023-02-17T10:04:08.364Z,64.33
2023-02-17T10:09:23.782Z,64.55
2023-02-17T10:14:41.549Z,64.43
2023-02-17T10:20:00.997Z,64.55
2023-02-17T10:25:17.667Z,64.64
2023-02-17T10:30:48.649Z,64.74
2023-02-17T10:36:15.423Z,64.50
2023-02-17T10:41:28.840Z,64.84
2023-02-17T10:46:33.824Z,64.84
2023-02-17T10:51:37.673Z,64.58
2023-02-17T10:56:55.215Z,65.24
2023-02-17T11:02:16.591Z,64.36
2023-02-17T11:07:27.663Z,64.86
2023-02-17T11:12:40.839Z,64.82
2023-02-17T11:17:46.379Z,64.82
2023-02-17T11:23:01.527Z,64.94
2023-02-17T11:28:12.458Z,64.73
2023-02-17T11:33:23.522Z,64.70
2023-02-17T11:38:49.936Z,64.80
2023-02-17T11:44:00.012Z,64.73
2023-02-17T11:49:28.614Z,64.48
2023-02-17T11:54:54.036Z,64.86
2023-02-17T12:00:06.094Z,64.37
2023-02-17T12:05:27.094Z,64.63
2023-02-17T12:10:52.765Z,64.77
2023-02-17T12:16:07.181Z,64.57
2023-02-17T12:21:27.198Z,64.61
2023-02-17T12:27:12.777Z,64.20
2023-02-17T12:32:39.756Z,64.20
2023-02-17T12:37:56.228Z,64.29
2023-02-17T12:43:28.023Z,63.96
2023-02-17T12:48:42.010Z,63.98
2023-02-17T12:54:06.301Z,64.42
2023-02-17T12:59:28.477Z,64.13
2023-02-17T13:04:35.216Z,64.06
2023-02-17T13:09:43.381Z,64.16
2023-02-17T13:15:03.711Z,64.36
2023-02-17T13:20:11.371Z,64.26
2023-02-17T13:25:37.125Z,64.19
2023-02-17T13:30:46.424Z,64.47
2023-02-17T13:35:50.852Z,64.00
2023-02-17T13:41:02.239Z,64.51
2023-02-17T13:46:07.153Z,64.18
2023-02-17T13:51:27.306Z,64.37
2023-02-17T13:56:33.348Z,64.07
2023-02-17T14:01:41.734Z,64.21
2023-02-17T14:06:45.609Z,64.49
2023-02-17T14:11:50.722Z,64.54
2023-02-17T14:17:04.024Z,64.56
2023-02-17T14:22:08.156Z,64.33
2023-02-17T14:27:15.579Z,64.60
2023-02-17T14:32:38.510Z,64.33
2023-02-17T14:37:45.882Z,64.31
2023-02-17T14:42:52.050Z,64.49
2023-02-17T14:47:57.489Z,64.59
2023-02-17T14:53:01.727Z,64.41
2023-02-17T14:58:05.950Z,64.60
2023-02-17T15:03:10.844Z,64.19
2023-02-17T15:08:18.465Z,64.43
2023-02-17T15:13:23.523Z,64.53
2023-02-17T15:18:28.227Z,64.28
2023-02-17T15:23:35.411Z,64.53
2023-02-17T15:28:39.703Z,64.63
2023-02-17T15:33:45.462Z,64.08
2023-02-17T15:38:51.968Z,64.20
2023-02-17T15:43:58.499Z,63.81
2023-02-17T15:49:03.324Z,64.22
2023-02-17T15:54:07.407Z,64.33
2023-02-17T15:59:22.247Z,64.29
2023-02-17T16:04:26.018Z,64.46
2023-02-17T16:09:30.118Z,64.44
2023-02-17T16:14:40.621Z,63.81
2023-02-17T16:19:44.668Z,64.13
2023-02-17T16:24:48.594Z,64.31
2023-02-17T16:29:53.345Z,64.27
2023-02-17T16:34:57.096Z,64.33
2023-02-17T16:40:01.483Z,64.11
2023-02-17T16:45:06.370Z,64.72
2023-02-17T16:50:38.162Z,64.70
2023-02-17T16:55:43.380Z,64.34
2023-02-17T17:00:49.323Z,64.58
2023-02-17T17:05:54.392Z,64.36
2023-02-17T17:10:58.919Z,64.26
2023-02-17T17:16:04.078Z,64.07
2023-02-17T17:21:07.939Z,64.31
2023-02-17T17:26:40.014Z,64.43
2023-02-17T17:31:44.090Z,64.22
2023-02-17T17:36:49.137Z,64.44
2023-02-17T17:41:53.135Z,64.29
2023-02-17T17:46:56.898Z,64.28
2023-02-17T17:52:00.715Z,64.58
2023-02-17T17:57:04.592Z,64.64
2023-02-17T18:02:09.585Z,64.75
2023-02-17T18:07:13.573Z,65.01
2023-02-17T18:12:20.595Z,64.86
2023-02-17T18:17:25.145Z,65.10
2023-02-17T18:22:29.424Z,64.82
2023-02-17T18:27:45.932Z,65.05
2023-02-17T18:32:50.392Z,65.06
2023-02-17T18:37:54.390Z,64.96
2023-02-17T18:42:58.387Z,64.95
2023-02-17T18:48:02.934Z,65.69
2023-02-17T18:53:06.703Z,65.64
2023-02-17T18:58:12.331Z,65.68
2023-02-17T19:03:16.515Z,65.58
2023-02-17T19:08:20.978Z,65.60
2023-02-17T19:13:24.807Z,65.95
2023-02-17T19:18:28.861Z,66.18
2023-02-17T19:23:32.910Z,66.35
2023-02-17T19:28:38.513Z,65.97
2023-02-17T19:33:44.846Z,66.35
2023-02-17T19:38:50.491Z,66.83
2023-02-17T19:43:54.184Z,66.49
2023-02-17T19:48:59.075Z,66.93
2023-02-17T19:54:03.502Z,66.90
2023-02-17T19:59:07.300Z,66.92
2023-02-17T20:04:11.743Z,66.71
2023-02-17T20:09:22.244Z,67.10
2023-02-17T20:14:26.087Z,66.78
2023-02-17T20:19:30.276Z,66.57
2023-02-17T20:24:35.177Z,67.05
2023-02-17T20:29:39.337Z,67.21
2023-02-17T20:34:44.078Z,67.38
2023-02-17T20:39:47.824Z,66.84
2023-02-17T20:44:51.731Z,66.86
2023-02-17T20:49:55.539Z,67.46
2023-02-17T20:54:59.546Z,67.55
2023-02-17T21:00:05.820Z,67.64
2023-02-17T21:05:09.856Z,67.20
2023-02-17T21:10:23.355Z,67.33
2023-02-17T21:15:28.399Z,67.60
2023-02-17T21:20:32.899Z,67.28
2023-02-17T21:25:39.006Z,67.61
2023-02-17T21:30:47.607Z,67.58
2023-02-17T21:35:56.936Z,67.71
2023-02-17T21:41:06.634Z,67.32
2023-02-17T21:46:12.209Z,67.90
2023-02-17T21:51:16.257Z,67.48
2023-02-17T21:56:22.087Z,67.81
2023-02-17T22:01:27.897Z,67.57
2023-02-17T22:06:34.919Z,67.44
2023-02-17T22:12:01.720Z,67.55
2023-02-17T22:17:05.669Z,67.55
2023-02-17T22:22:09.965Z,67.92
2023-02-17T22:27:13.894Z,67.72
2023-02-17T22:32:17.775Z,68.13
2023-02-17T22:37:21.762Z,68.01
2023-02-17T22:42:25.870Z,67.52
2023-02-17T22:47:29.763Z,67.95
2023-02-17T22:52:35.100Z,67.74
2023-02-17T22:57:38.922Z,68.03
2023-02-17T23:02:42.746Z,67.76
2023-02-17T23:07:46.526Z,67.72
2023-02-17T23:12:50.452Z,67.56
2023-02-17T23:17:57.834Z,68.54
2023-02-17T23:23:02.084Z,67.77
2023-02-17T23:28:06.851Z,68.33
2023-02-17T23:33:11.350Z,68.88
2023-02-17T23:38:18.978Z,67.92
2023-02-17T23:43:23.177Z,68.48
2023-02-17T23:48:26.879Z,68.55
2023-02-17T23:53:32.410Z,68.25
2023-02-17T23:58:36.624Z,68.12
